createdAt,value
2022-10-31T00:03:34.036Z,12.60
2022-10-31T00:08:35.473Z,11.43
2022-10-31T00:13:36.848Z,13.63
2022-10-31T00:18:38.196Z,13.50
2022-10-31T00:23:39.545Z,13.68
2022-10-31T00:28:40.905Z,16.70
2022-10-31T00:33:42.640Z,14.52
2022-10-31T00:38:44.688Z,15.35
2022-10-31T00:43:46.299Z,12.98
2022-10-31T00:48:48.327Z,13.05
2022-10-31T00:53:49.715Z,13.52
2022-10-31T00:58:51.097Z,12.48
2022-10-31T01:03:52.438Z,12.35
2022-10-31T01:08:53.789Z,11.38
2022-10-31T01:13:55.349Z,11.77
2022-10-31T01:18:56.857Z,11.77
2022-10-31T01:23:58.246Z,13.32
2022-10-31T01:29:04.496Z,11.73
2022-10-31T01:34:06.441Z,12.60
2022-10-31T01:39:12.674Z,11.00
2022-10-31T01:44:17.162Z,13.70
2022-10-31T01:49:28.053Z,12.77
2022-10-31T01:54:32.494Z,12.43
2022-10-31T01:59:35.684Z,11.18
2022-10-31T02:04:37.893Z,14.48
2022-10-31T02:09:40.770Z,11.52
2022-10-31T02:14:42.509Z,11.50
2022-10-31T02:19:44.024Z,14.25
2022-10-31T02:24:45.469Z,12.27
2022-10-31T02:29:55.553Z,12.65
2022-10-31T02:35:15.775Z,13.07
2022-10-31T02:40:26.614Z,14.63
2022-10-31T02:50:34.382Z,12.65
2022-10-31T02:55:35.739Z,12.13
2022-10-31T03:00:41.772Z,14.23
2022-10-31T03:05:46.241Z,13.65
2022-10-31T03:10:47.688Z,15.70
2022-10-31T03:15:54.406Z,11.90
2022-10-31T03:21:15.544Z,11.38
2022-10-31T03:26:17.399Z,13.02
2022-10-31T03:31:20.563Z,14.40
2022-10-31T03:36:22.174Z,15.63
2022-10-31T03:41:25.797Z,14.45
2022-10-31T03:46:27.635Z,15.98
2022-10-31T03:51:40.261Z,13.32
2022-10-31T03:56:44.003Z,14.95
2022-10-31T04:01:47.981Z,18.25
2022-10-31T04:06:50.112Z,13.13
2022-10-31T04:11:53.887Z,14.60
2022-10-31T04:16:55.211Z,15.10
2022-10-31T04:21:56.574Z,15.40
2022-10-31T04:26:57.993Z,15.77
2022-10-31T04:31:59.595Z,15.98
2022-10-31T04:37:01.126Z,17.90
2022-10-31T04:42:02.478Z,16.98
2022-10-31T04:47:03.923Z,20.85
2022-10-31T04:52:05.352Z,17.50
2022-10-31T04:57:07.112Z,20.38
2022-10-31T05:02:08.782Z,17.83
2022-10-31T05:07:10.301Z,20.25
2022-10-31T05:12:11.649Z,18.75
2022-10-31T05:17:13.000Z,21.08
2022-10-31T05:22:14.345Z,23.35
2022-10-31T05:27:15.707Z,23.38
2022-10-31T05:32:17.022Z,18.10
2022-10-31T05:37:18.370Z,20.30
2022-10-31T05:42:19.814Z,18.08
2022-10-31T05:47:21.174Z,19.90
2022-10-31T05:52:22.563Z,22.13
2022-10-31T05:57:25.318Z,20.60
2022-10-31T06:02:27.744Z,19.77
2022-10-31T06:07:33.057Z,25.05
2022-10-31T06:12:38.797Z,24.60
2022-10-31T06:17:40.315Z,26.45
2022-10-31T06:22:41.684Z,28.02
2022-10-31T06:27:44.399Z,28.88
2022-10-31T06:32:45.811Z,28.35
2022-10-31T06:37:56.222Z,28.58
2022-10-31T06:42:58.638Z,31.17
2022-10-31T06:53:21.413Z,36.47
2022-10-31T06:58:24.635Z,31.30
2022-10-31T07:03:26.073Z,30.88
2022-10-31T07:08:27.493Z,34.15
2022-10-31T07:13:29.061Z,36.15
2022-10-31T07:18:30.666Z,31.23
2022-10-31T07:23:32.279Z,34.15
2022-10-31T07:28:33.644Z,33.75
2022-10-31T07:33:35.181Z,30.88
2022-10-31T07:38:36.601Z,31.90
2022-10-31T07:43:37.992Z,33.78
2022-10-31T07:48:39.429Z,33.08
2022-10-31T07:53:40.895Z,34.58
2022-10-31T07:58:42.250Z,30.65
2022-10-31T08:03:43.579Z,32.38
2022-10-31T08:08:44.911Z,34.92
2022-10-31T08:13:47.470Z,31.60
2022-10-31T08:18:48.886Z,34.42
2022-10-31T08:23:50.296Z,31.73
2022-10-31T08:28:51.705Z,37.08
2022-10-31T08:33:53.360Z,36.28
2022-10-31T08:39:00.625Z,32.55
2022-10-31T08:44:03.212Z,31.70
2022-10-31T08:49:04.641Z,32.83
2022-10-31T08:54:06.070Z,33.58
2022-10-31T08:59:07.429Z,32.00
2022-10-31T09:04:08.771Z,34.50
2022-10-31T09:09:10.302Z,31.63
2022-10-31T09:14:11.829Z,33.28
2022-10-31T09:19:13.230Z,29.98
2022-10-31T09:24:14.619Z,31.25
2022-10-31T09:29:16.201Z,33.97
2022-10-31T09:34:17.801Z,34.88
2022-10-31T09:39:21.272Z,31.08
2022-10-31T09:44:43.120Z,31.77
2022-10-31T09:49:44.756Z,28.55
2022-10-31T09:54:48.618Z,33.75
2022-10-31T09:59:50.458Z,27.92
2022-10-31T10:04:59.491Z,31.88
2022-10-31T10:10:02.037Z,27.40
2022-10-31T10:15:18.256Z,28.92
2022-10-31T10:20:25.856Z,31.42
2022-10-31T10:25:33.486Z,31.65
2022-10-31T10:30:46.274Z,29.85
2022-10-31T10:35:54.758Z,31.55
2022-10-31T10:40:56.749Z,28.23
2022-10-31T10:46:35.687Z,28.60
2022-10-31T10:52:18.963Z,27.98
2022-10-31T10:57:04.409Z,25.08
2022-10-31T11:02:16.678Z,25.13
2022-10-31T11:07:19.988Z,25.77
2022-10-31T11:12:31.167Z,25.85
2022-10-31T11:17:35.249Z,25.23
2022-10-31T11:22:36.871Z,22.67
2022-10-31T11:27:38.363Z,24.55
2022-10-31T11:32:45.291Z,23.50
2022-10-31T11:37:47.924Z,20.70
2022-10-31T11:42:50.585Z,21.30
2022-10-31T11:47:58.212Z,20.60
2022-10-31T11:53:01.160Z,21.13
2022-10-31T11:58:03.411Z,25.58
2022-10-31T12:03:11.227Z,22.77
2022-10-31T12:08:13.334Z,23.77
2022-10-31T12:13:33.283Z,22.38
2022-10-31T12:23:49.151Z,19.08
2022-10-31T12:28:55.465Z,16.92
2022-10-31T12:34:16.390Z,21.23
2022-10-31T12:39:36.368Z,19.58
2022-10-31T12:49:44.853Z,19.23
2022-10-31T12:54:52.026Z,19.05
2022-10-31T13:00:28.140Z,19.60
2022-10-31T13:05:37.832Z,18.08
2022-10-31T13:10:43.239Z,19.42
2022-10-31T13:15:49.415Z,17.98
2022-10-31T13:20:54.787Z,19.63
2022-10-31T13:25:58.270Z,23.60
2022-10-31T13:30:59.662Z,24.48
2022-10-31T13:36:21.285Z,30.10
2022-10-31T13:41:22.719Z,26.83
2022-10-31T13:46:25.593Z,27.67
2022-10-31T13:51:29.356Z,28.25
2022-10-31T13:56:32.922Z,23.55
2022-10-31T14:01:34.687Z,23.17
2022-10-31T14:06:42.428Z,23.45
2022-10-31T14:11:46.938Z,29.98
2022-10-31T14:16:55.766Z,31.75
2022-10-31T14:21:57.291Z,32.80
2022-10-31T14:26:59.961Z,29.63
2022-10-31T14:32:14.324Z,29.67
2022-10-31T14:37:38.751Z,31.67
2022-10-31T14:42:59.148Z,30.08
2022-10-31T14:48:19.487Z,36.42
2022-10-31T14:53:41.128Z,34.08
2022-10-31T14:58:44.134Z,29.48
2022-10-31T15:04:10.190Z,27.27
2022-10-31T15:09:21.531Z,33.88
2022-10-31T15:14:27.682Z,25.60
2022-10-31T15:19:30.704Z,28.17
2022-10-31T15:24:35.117Z,24.27
2022-10-31T15:29:36.518Z,24.98
2022-10-31T15:34:42.154Z,28.08
2022-10-31T15:39:47.011Z,26.17
2022-10-31T15:44:59.717Z,25.77
2022-10-31T15:50:02.510Z,29.10
2022-10-31T15:55:19.716Z,26.60
2022-10-31T16:00:31.974Z,25.38
2022-10-31T16:05:37.505Z,24.80
2022-10-31T16:10:38.849Z,23.35
2022-10-31T16:15:48.694Z,28.40
2022-10-31T16:20:51.093Z,26.58
2022-10-31T16:25:52.840Z,27.73
2022-10-31T16:30:57.782Z,21.23
2022-10-31T16:36:09.688Z,24.38
2022-10-31T16:41:20.963Z,25.35
2022-10-31T16:46:26.557Z,24.38
2022-10-31T16:51:27.900Z,26.73
2022-10-31T16:56:30.255Z,27.00
2022-10-31T17:01:32.350Z,25.75
2022-10-31T17:06:33.827Z,28.38
2022-10-31T17:11:35.367Z,28.48
2022-10-31T17:16:37.468Z,27.75
2022-10-31T17:21:39.389Z,27.27
2022-10-31T17:26:41.244Z,27.15
2022-10-31T17:31:42.859Z,29.98
2022-10-31T17:36:49.718Z,33.58
2022-10-31T17:41:51.897Z,31.00
2022-10-31T17:46:53.240Z,29.83
2022-10-31T17:51:54.603Z,30.42
2022-10-31T17:56:56.035Z,33.08
2022-10-31T18:01:58.288Z,35.17
2022-10-31T18:06:59.769Z,31.92
2022-10-31T18:12:01.157Z,34.05
2022-10-31T18:17:02.577Z,33.55
2022-10-31T18:22:03.943Z,37.25
2022-10-31T18:27:05.624Z,35.45
2022-10-31T18:32:09.494Z,36.95
2022-10-31T18:37:11.270Z,34.20
2022-10-31T18:42:12.635Z,37.20
2022-10-31T18:47:14.090Z,34.03
2022-10-31T18:52:15.433Z,33.88
2022-10-31T18:57:16.925Z,33.80
2022-10-31T19:02:18.447Z,35.28
2022-10-31T19:07:19.991Z,35.22
2022-10-31T19:12:21.417Z,35.67
2022-10-31T19:17:24.181Z,38.08
2022-10-31T19:22:25.547Z,39.97
2022-10-31T19:27:28.175Z,37.03
2022-10-31T19:32:29.619Z,37.55
2022-10-31T19:37:31.001Z,37.70
2022-10-31T19:42:33.550Z,41.15
2022-10-31T19:47:34.988Z,40.28
2022-10-31T19:52:36.343Z,38.83
2022-10-31T20:03:00.139Z,45.03
2022-10-31T20:08:01.764Z,41.83
2022-10-31T20:13:03.453Z,39.58
2022-10-31T20:18:05.058Z,46.17
2022-10-31T20:23:06.465Z,45.80
2022-10-31T20:28:07.813Z,43.75
2022-10-31T20:33:09.367Z,39.38
2022-10-31T20:38:10.786Z,48.13
2022-10-31T20:43:12.322Z,43.30
2022-10-31T20:48:13.650Z,40.95
2022-10-31T20:53:14.983Z,43.55
2022-10-31T20:58:16.411Z,38.60
2022-10-31T21:03:17.730Z,37.13
2022-10-31T21:08:19.096Z,38.70
2022-10-31T21:13:20.718Z,32.05
2022-10-31T21:18:22.147Z,37.38
2022-10-31T21:23:23.604Z,30.67
2022-10-31T21:28:25.088Z,28.50
2022-10-31T21:33:26.517Z,24.15
2022-10-31T21:38:27.867Z,24.13
2022-10-31T21:43:29.807Z,23.08
2022-10-31T21:48:31.215Z,28.42
2022-10-31T21:53:51.169Z,21.48
2022-10-31T22:03:53.984Z,21.75
2022-10-31T22:08:55.442Z,20.77
2022-10-31T22:13:58.713Z,19.38
2022-10-31T22:19:00.370Z,20.45
2022-10-31T22:24:04.953Z,23.98
2022-10-31T22:29:11.887Z,18.25
2022-10-31T22:34:13.842Z,20.65
2022-10-31T22:39:15.252Z,21.33
2022-10-31T22:44:16.631Z,17.90
2022-10-31T22:49:18.038Z,18.85
2022-10-31T22:54:19.529Z,17.45
2022-10-31T22:59:20.901Z,19.17
2022-10-31T23:04:22.333Z,21.33
2022-10-31T23:09:23.646Z,19.08
2022-10-31T23:14:25.178Z,22.60
2022-10-31T23:19:27.803Z,15.27
2022-10-31T23:24:39.282Z,16.13
2022-10-31T23:29:44.478Z,18.98
2022-10-31T23:34:46.766Z,19.85
2022-10-31T23:39:48.506Z,16.55
2022-10-31T23:44:49.875Z,18.33
2022-10-31T23:49:51.225Z,18.33
2022-10-31T23:54:52.647Z,17.25
2022-10-31T23:59:53.966Z,16.27
